createdAt,value
2023-03-17T00:01:57.403Z,7.40
2023-03-17T00:04:28.582Z,7.40
2023-03-17T00:06:58.051Z,7.60
2023-03-17T00:09:26.464Z,7.60
2023-03-17T00:11:54.868Z,7.60
2023-03-17T00:14:23.212Z,7.50
2023-03-17T00:16:53.888Z,7.60
2023-03-17T00:19:29.957Z,7.60
2023-03-17T00:21:59.147Z,7.40
2023-03-17T00:24:27.590Z,7.20
2023-03-17T00:26:55.956Z,7.10
2023-03-17T00:29:25.541Z,7.20
2023-03-17T00:31:54.668Z,7.20
2023-03-17T00:34:24.553Z,7.30
2023-03-17T00:36:54.498Z,7.30
2023-03-17T00:39:25.485Z,7.20
2023-03-17T00:41:56.100Z,7.10
2023-03-17T00:44:25.612Z,6.90
2023-03-17T00:46:56.629Z,6.80
2023-03-17T00:49:26.402Z,6.90
2023-03-17T00:51:56.528Z,7.10
2023-03-17T00:54:25.189Z,7.20
2023-03-17T00:56:53.770Z,7.30
2023-03-17T00:59:27.564Z,7.30
2023-03-17T01:01:56.603Z,7.30
2023-03-17T01:04:25.665Z,7.10
2023-03-17T01:06:54.549Z,7.10
2023-03-17T01:09:27.142Z,7.10
2023-03-17T01:11:56.228Z,6.90
2023-03-17T01:14:25.977Z,6.90
2023-03-17T01:16:55.330Z,7.00
2023-03-17T01:19:24.424Z,7.10
2023-03-17T01:21:53.018Z,7.00
2023-03-17T01:24:21.438Z,7.10
2023-03-17T01:26:52.152Z,7.20
2023-03-17T01:29:20.474Z,7.10
2023-03-17T01:31:48.853Z,6.90
2023-03-17T01:34:17.250Z,6.70
2023-03-17T01:36:46.621Z,6.90
2023-03-17T01:39:16.232Z,7.00
2023-03-17T01:41:45.783Z,6.90
2023-03-17T01:44:19.015Z,6.90
2023-03-17T01:46:47.690Z,6.90
2023-03-17T01:49:26.156Z,6.90
2023-03-17T01:52:06.250Z,6.80
2023-03-17T01:54:43.187Z,6.60
2023-03-17T01:57:17.352Z,6.50
2023-03-17T01:59:52.052Z,6.50
2023-03-17T02:02:25.876Z,6.50
2023-03-17T02:04:54.520Z,6.60
2023-03-17T02:07:26.829Z,6.80
2023-03-17T02:09:57.158Z,7.00
2023-03-17T02:12:26.865Z,6.90
2023-03-17T02:14:57.593Z,6.90
2023-03-17T02:17:28.842Z,6.90
2023-03-17T02:19:57.837Z,6.90
2023-03-17T02:22:28.166Z,6.80
2023-03-17T02:24:59.528Z,6.80
2023-03-17T02:27:34.039Z,6.70
2023-03-17T02:30:02.500Z,6.80
2023-03-17T02:32:30.968Z,6.70
2023-03-17T02:34:59.560Z,6.80
2023-03-17T02:37:29.371Z,6.90
2023-03-17T02:39:57.882Z,6.80
2023-03-17T02:42:26.276Z,6.70
2023-03-17T02:44:55.055Z,6.70
2023-03-17T02:47:23.433Z,6.70
2023-03-17T02:49:52.338Z,6.80
2023-03-17T02:52:20.688Z,6.70
2023-03-17T02:54:50.476Z,6.60
2023-03-17T02:57:18.903Z,6.80
2023-03-17T02:59:47.254Z,6.70
2023-03-17T03:02:16.942Z,6.80
2023-03-17T03:04:45.787Z,6.90
2023-03-17T03:07:14.127Z,6.80
2023-03-17T03:09:42.606Z,6.80
2023-03-17T03:12:13.986Z,6.90
2023-03-17T03:14:43.364Z,6.90
2023-03-17T03:17:11.941Z,6.90
2023-03-17T03:19:40.872Z,6.90
2023-03-17T03:22:09.697Z,7.00
2023-03-17T03:24:38.260Z,7.00
2023-03-17T03:27:06.997Z,6.80
2023-03-17T03:29:37.369Z,6.90
2023-03-17T03:32:06.129Z,7.00
2023-03-17T03:34:34.445Z,7.10
2023-03-17T03:37:02.902Z,7.10
2023-03-17T03:39:31.281Z,7.00
2023-03-17T03:41:59.692Z,7.00
2023-03-17T03:44:28.125Z,7.00
2023-03-17T03:46:57.895Z,6.90
2023-03-17T03:49:26.320Z,6.80
2023-03-17T03:51:54.778Z,6.70
2023-03-17T03:54:23.126Z,6.50
2023-03-17T03:56:51.583Z,6.50
2023-03-17T03:59:20.035Z,6.60
2023-03-17T04:01:48.336Z,6.50
2023-03-17T04:04:18.125Z,6.60
2023-03-17T04:06:46.493Z,6.60
2023-03-17T04:09:14.845Z,6.70
2023-03-17T04:11:43.168Z,6.80
2023-03-17T04:14:11.504Z,6.80
2023-03-17T04:16:42.219Z,6.70
2023-03-17T04:19:12.441Z,6.60
2023-03-17T04:21:42.347Z,6.60
2023-03-17T04:24:11.019Z,6.60
2023-03-17T04:26:39.382Z,6.40
2023-03-17T04:29:09.025Z,6.40
2023-03-17T04:31:37.792Z,6.40
2023-03-17T04:34:06.278Z,6.40
2023-03-17T04:36:34.913Z,6.40
2023-03-17T04:39:04.778Z,6.40
2023-03-17T04:41:33.246Z,6.50
2023-03-17T04:44:01.563Z,6.50
2023-03-17T04:46:30.071Z,6.40
2023-03-17T04:48:58.750Z,6.40
2023-03-17T04:51:27.394Z,6.40
2023-03-17T04:53:56.117Z,6.40
2023-03-17T04:56:25.848Z,6.20
2023-03-17T04:58:54.347Z,6.00
2023-03-17T05:01:22.859Z,5.90
2023-03-17T05:03:51.735Z,5.70
2023-03-17T05:06:20.162Z,5.80
2023-03-17T05:08:48.546Z,5.90
2023-03-17T05:11:17.160Z,6.00
2023-03-17T05:13:47.222Z,6.10
2023-03-17T05:16:15.719Z,6.10
2023-03-17T05:18:44.904Z,5.90
2023-03-17T05:21:13.252Z,6.00
2023-03-17T05:23:41.997Z,6.00
2023-03-17T05:26:10.411Z,6.00
2023-03-17T05:28:38.810Z,6.10
2023-03-17T05:31:10.906Z,6.20
2023-03-17T05:33:40.507Z,6.30
2023-03-17T05:36:09.335Z,6.30
2023-03-17T05:38:37.949Z,6.40
2023-03-17T05:41:06.635Z,6.50
2023-03-17T05:43:35.185Z,6.70
2023-03-17T05:46:03.957Z,6.80
2023-03-17T05:48:33.778Z,6.80
2023-03-17T05:51:02.251Z,7.00
2023-03-17T05:53:31.308Z,7.20
2023-03-17T05:55:59.723Z,7.40
2023-03-17T05:58:28.035Z,7.60
2023-03-17T06:00:56.413Z,7.70
2023-03-17T06:03:24.850Z,7.80
2023-03-17T06:05:54.600Z,7.90
2023-03-17T06:08:22.982Z,8.00
2023-03-17T06:10:51.574Z,8.00
2023-03-17T06:13:20.135Z,8.10
2023-03-17T06:15:52.719Z,8.20
2023-03-17T06:18:21.484Z,8.30
2023-03-17T06:20:49.870Z,8.30
2023-03-17T06:23:19.720Z,8.40
2023-03-17T06:25:48.518Z,8.20
2023-03-17T06:28:17.047Z,8.00
2023-03-17T06:30:45.471Z,7.80
2023-03-17T06:33:14.236Z,7.70
2023-03-17T06:35:42.675Z,7.70
2023-03-17T06:38:11.102Z,7.80
2023-03-17T06:40:40.812Z,7.80
2023-03-17T06:43:09.362Z,7.90
2023-03-17T06:45:37.757Z,7.90
2023-03-17T06:48:07.103Z,7.80
2023-03-17T06:50:35.481Z,8.00
2023-03-17T06:53:03.853Z,8.20
2023-03-17T06:55:33.897Z,8.20
2023-03-17T06:58:03.729Z,8.20
2023-03-17T07:00:33.077Z,8.20
2023-03-17T07:03:01.461Z,8.20
2023-03-17T07:05:30.098Z,8.40
2023-03-17T07:07:58.790Z,8.40
2023-03-17T07:10:27.150Z,8.50
2023-03-17T07:12:56.009Z,8.50
2023-03-17T07:15:25.963Z,8.70
2023-03-17T07:17:54.545Z,8.70
2023-03-17T07:20:26.042Z,8.80
2023-03-17T07:22:55.319Z,8.90
2023-03-17T07:25:23.897Z,9.00
2023-03-17T07:27:53.563Z,9.10
2023-03-17T07:30:22.059Z,9.30
2023-03-17T07:32:51.897Z,9.40
2023-03-17T07:35:20.922Z,9.50
2023-03-17T07:37:49.883Z,9.60
2023-03-17T07:40:19.601Z,9.70
2023-03-17T07:42:48.007Z,9.80
2023-03-17T07:45:16.575Z,10.00
2023-03-17T07:47:46.464Z,10.00
2023-03-17T07:50:16.601Z,10.00
2023-03-17T07:52:45.123Z,10.20
2023-03-17T07:55:13.912Z,10.30
2023-03-17T07:57:42.632Z,10.30
2023-03-17T08:00:13.830Z,10.40
2023-03-17T08:02:43.262Z,10.30
2023-03-17T08:05:15.400Z,10.40
2023-03-17T08:07:45.475Z,10.50
2023-03-17T08:10:16.731Z,10.60
2023-03-17T08:12:45.735Z,10.60
2023-03-17T08:15:14.528Z,10.70
2023-03-17T08:17:42.838Z,11.00
2023-03-17T08:20:13.043Z,11.20
2023-03-17T08:22:41.948Z,11.40
2023-03-17T08:25:12.794Z,11.50
2023-03-17T08:27:42.387Z,11.70
2023-03-17T08:30:12.854Z,11.70
2023-03-17T08:32:41.440Z,11.50
2023-03-17T08:35:12.993Z,11.70
2023-03-17T08:37:41.734Z,11.90
2023-03-17T08:40:13.937Z,11.90
2023-03-17T08:42:43.125Z,11.90
2023-03-17T08:45:12.808Z,12.10
2023-03-17T08:47:42.077Z,12.30
2023-03-17T08:50:15.888Z,12.30
2023-03-17T08:52:44.398Z,12.20
2023-03-17T08:55:15.414Z,12.20
2023-03-17T08:57:44.736Z,12.40
2023-03-17T09:00:15.432Z,12.40
2023-03-17T09:02:45.265Z,12.30
2023-03-17T09:05:15.050Z,12.50
2023-03-17T09:07:43.818Z,12.40
2023-03-17T09:10:16.874Z,12.50
2023-03-17T09:12:45.350Z,12.60
2023-03-17T09:15:14.189Z,12.70
2023-03-17T09:17:43.874Z,12.80
2023-03-17T09:20:13.866Z,12.90
2023-03-17T09:22:42.608Z,12.80
2023-03-17T09:25:11.185Z,12.80
2023-03-17T09:27:41.032Z,12.90
2023-03-17T09:30:11.282Z,13.00
2023-03-17T09:32:39.772Z,12.90
2023-03-17T09:35:08.548Z,13.00
2023-03-17T09:37:37.065Z,13.00
2023-03-17T09:40:09.157Z,13.10
2023-03-17T09:42:53.903Z,13.00
2023-03-17T09:45:33.370Z,13.10
2023-03-17T09:48:37.465Z,13.00
2023-03-17T09:51:09.055Z,13.00
2023-03-17T09:53:46.967Z,13.00
2023-03-17T09:56:17.491Z,13.10
2023-03-17T09:58:52.954Z,13.30
2023-03-17T10:01:23.426Z,13.40
2023-03-17T10:03:52.237Z,13.40
2023-03-17T10:06:33.774Z,13.50
2023-03-17T10:09:11.613Z,13.50
2023-03-17T10:11:43.198Z,13.60
2023-03-17T10:14:41.770Z,13.70
2023-03-17T10:17:17.744Z,13.90
2023-03-17T10:19:49.894Z,13.90
2023-03-17T10:22:23.792Z,13.90
2023-03-17T10:24:55.733Z,14.10
2023-03-17T10:27:24.993Z,14.10
2023-03-17T10:29:54.703Z,14.20
2023-03-17T10:32:23.170Z,14.40
2023-03-17T10:34:51.999Z,14.50
2023-03-17T10:37:23.880Z,14.60
2023-03-17T10:39:57.281Z,14.70
2023-03-17T10:42:27.236Z,14.70
2023-03-17T10:44:58.635Z,14.60
2023-03-17T10:47:31.730Z,14.50
2023-03-17T10:50:05.649Z,14.50
2023-03-17T10:52:39.671Z,14.80
2023-03-17T10:55:10.705Z,14.90
2023-03-17T10:57:40.646Z,15.00
2023-03-17T11:00:20.090Z,15.10
2023-03-17T11:02:52.678Z,15.30
2023-03-17T11:05:23.738Z,15.40
2023-03-17T11:07:59.171Z,15.60
2023-03-17T11:10:30.373Z,15.80
2023-03-17T11:13:02.019Z,15.70
2023-03-17T11:15:35.805Z,15.80
2023-03-17T11:18:07.929Z,16.00
2023-03-17T11:20:51.480Z,16.10
2023-03-17T11:23:46.487Z,16.30
2023-03-17T11:26:35.770Z,16.20
2023-03-17T11:29:22.910Z,16.40
2023-03-17T11:32:00.833Z,16.40
2023-03-17T11:34:53.271Z,16.60
2023-03-17T11:37:33.242Z,16.60
2023-03-17T11:40:14.900Z,16.60
2023-03-17T11:42:55.358Z,16.60
2023-03-17T11:45:30.733Z,16.80
2023-03-17T11:48:15.110Z,16.90
2023-03-17T11:50:55.166Z,17.10
2023-03-17T11:53:51.972Z,17.30
2023-03-17T11:56:22.361Z,17.30
2023-03-17T11:58:57.236Z,17.30
2023-03-17T12:01:30.227Z,17.20
2023-03-17T12:04:12.282Z,17.30
2023-03-17T12:06:46.582Z,17.10
2023-03-17T12:09:25.910Z,16.90
2023-03-17T12:11:57.601Z,17.00
2023-03-17T12:14:30.781Z,17.20
2023-03-17T12:17:09.343Z,17.10
2023-03-17T12:19:43.905Z,17.00
2023-03-17T12:22:21.406Z,16.90
2023-03-17T12:24:58.216Z,17.10
2023-03-17T12:27:31.185Z,17.20
2023-03-17T12:30:03.064Z,17.40
2023-03-17T12:32:38.710Z,17.40
2023-03-17T12:35:26.336Z,17.50
2023-03-17T12:37:56.962Z,17.50
2023-03-17T12:40:32.376Z,17.40
2023-03-17T12:43:19.460Z,17.40
2023-03-17T12:46:04.912Z,17.50
2023-03-17T12:48:52.278Z,17.50
2023-03-17T12:51:59.182Z,17.70
2023-03-17T12:54:30.325Z,17.50
2023-03-17T12:57:04.522Z,17.40
2023-03-17T12:59:34.178Z,17.60
2023-03-17T13:02:23.301Z,17.60
2023-03-17T13:04:58.167Z,17.50
2023-03-17T13:07:33.851Z,17.70
2023-03-17T13:10:21.328Z,18.00
2023-03-17T13:13:21.737Z,18.10
2023-03-17T13:15:54.951Z,18.30
2023-03-17T13:18:31.444Z,18.40
2023-03-17T13:21:14.161Z,18.20
2023-03-17T13:23:47.535Z,18.20
2023-03-17T13:26:20.181Z,18.00
2023-03-17T13:28:50.398Z,17.90
2023-03-17T13:31:36.886Z,18.10
2023-03-17T13:34:15.294Z,18.30
2023-03-17T13:37:02.470Z,18.30
2023-03-17T13:39:52.153Z,18.30
2023-03-17T13:42:36.777Z,18.20
2023-03-17T13:45:21.106Z,18.20
2023-03-17T13:47:52.630Z,18.60
2023-03-17T13:50:25.179Z,18.80
2023-03-17T13:52:57.358Z,18.80
2023-03-17T13:55:39.548Z,18.80
2023-03-17T13:58:24.799Z,19.60
2023-03-17T14:01:00.351Z,20.60
2023-03-17T14:03:36.537Z,21.00
2023-03-17T14:06:08.126Z,21.60
2023-03-17T14:08:38.071Z,21.90
2023-03-17T14:11:17.091Z,23.10
2023-03-17T14:13:53.887Z,24.00
2023-03-17T14:16:27.651Z,24.40
2023-03-17T14:19:01.463Z,24.70
2023-03-17T14:21:33.186Z,24.90
2023-03-17T14:24:04.358Z,24.10
2023-03-17T14:26:34.341Z,22.60
2023-03-17T14:29:04.955Z,21.10
2023-03-17T14:31:33.494Z,20.00
2023-03-17T14:34:03.313Z,19.20
2023-03-17T14:36:35.004Z,18.70
2023-03-17T14:39:03.640Z,18.30
2023-03-17T14:41:34.804Z,18.00
2023-03-17T14:44:03.446Z,17.50
2023-03-17T14:46:34.327Z,17.30
2023-03-17T14:49:05.197Z,17.10
2023-03-17T14:51:36.361Z,16.90
2023-03-17T14:54:11.493Z,16.80
2023-03-17T14:56:43.996Z,16.80
2023-03-17T14:59:23.431Z,16.70
2023-03-17T15:01:56.756Z,16.70
2023-03-17T15:04:26.904Z,16.60
2023-03-17T15:06:56.881Z,16.50
2023-03-17T15:09:27.999Z,16.40
2023-03-17T15:12:04.216Z,16.40
2023-03-17T15:14:35.164Z,16.30
2023-03-17T15:17:05.286Z,16.30
2023-03-17T15:19:40.715Z,16.10
2023-03-17T15:22:24.303Z,16.20
2023-03-17T15:25:04.698Z,16.20
2023-03-17T15:27:34.581Z,16.10
2023-03-17T15:30:03.337Z,16.10
2023-03-17T15:32:32.436Z,16.00
2023-03-17T15:35:00.904Z,15.90
2023-03-17T15:37:31.732Z,15.90
2023-03-17T15:40:01.722Z,15.90
2023-03-17T15:42:32.712Z,15.70
2023-03-17T15:45:03.806Z,15.60
2023-03-17T15:47:34.326Z,15.60
2023-03-17T15:50:11.960Z,15.40
2023-03-17T15:52:40.410Z,15.30
2023-03-17T15:55:17.011Z,15.20
2023-03-17T15:57:53.880Z,15.10
2023-03-17T16:00:29.906Z,15.00
2023-03-17T16:03:02.741Z,14.90
2023-03-17T16:05:33.811Z,14.90
2023-03-17T16:08:03.856Z,14.80
2023-03-17T16:10:34.078Z,14.60
2023-03-17T16:13:02.606Z,14.50
2023-03-17T16:15:35.249Z,14.40
2023-03-17T16:18:07.590Z,14.30
2023-03-17T16:23:13.609Z,14.20
2023-03-17T16:25:42.192Z,14.20
2023-03-17T16:28:16.816Z,14.10
2023-03-17T16:30:48.498Z,14.20
2023-03-17T16:33:18.974Z,14.20
2023-03-17T16:35:48.897Z,14.20
2023-03-17T16:38:22.091Z,14.10
2023-03-17T16:40:53.094Z,14.00
2023-03-17T16:43:25.628Z,14.00
2023-03-17T16:45:58.227Z,13.80
2023-03-17T16:48:27.356Z,13.70
2023-03-17T16:50:56.224Z,13.50
2023-03-17T16:53:26.248Z,13.50
2023-03-17T16:55:55.825Z,13.30
2023-03-17T16:58:27.420Z,13.30
2023-03-17T17:01:02.923Z,13.20
2023-03-17T17:03:32.320Z,13.10
2023-03-17T17:06:00.684Z,13.00
2023-03-17T17:08:30.056Z,13.00
2023-03-17T17:10:58.571Z,12.80
2023-03-17T17:13:26.908Z,12.70
2023-03-17T17:15:57.246Z,12.70
2023-03-17T17:18:26.497Z,12.70
2023-03-17T17:20:56.840Z,12.70
2023-03-17T17:23:27.592Z,12.70
2023-03-17T17:25:56.464Z,12.70
2023-03-17T17:28:27.229Z,12.70
2023-03-17T17:30:58.615Z,12.60
2023-03-17T17:33:27.195Z,12.60
2023-03-17T17:35:55.867Z,12.70
2023-03-17T17:38:26.855Z,12.60
2023-03-17T17:40:56.143Z,12.50
2023-03-17T17:43:25.566Z,12.30
2023-03-17T17:45:54.437Z,12.30
2023-03-17T17:48:26.576Z,12.20
2023-03-17T17:50:56.189Z,12.00
2023-03-17T17:53:24.742Z,12.00
2023-03-17T17:55:53.363Z,11.80
2023-03-17T17:58:23.833Z,11.70
2023-03-17T18:00:55.500Z,11.60
2023-03-17T18:03:25.735Z,11.50
2023-03-17T18:05:54.704Z,11.50
2023-03-17T18:08:23.837Z,11.40
2023-03-17T18:10:52.500Z,11.40
2023-03-17T18:13:21.017Z,11.50
2023-03-17T18:15:49.382Z,11.50
2023-03-17T18:18:17.824Z,11.60
2023-03-17T18:20:47.595Z,11.60
2023-03-17T18:23:16.592Z,11.60
2023-03-17T18:25:44.910Z,11.50
2023-03-17T18:28:13.555Z,11.50
2023-03-17T18:30:42.199Z,11.40
2023-03-17T18:33:17.605Z,11.30
2023-03-17T18:35:50.216Z,11.30
2023-03-17T18:38:18.739Z,11.10
2023-03-17T18:40:47.200Z,11.00
2023-03-17T18:43:18.190Z,11.00
2023-03-17T18:45:46.607Z,10.90
2023-03-17T18:48:15.063Z,11.00
2023-03-17T18:50:43.921Z,11.10
2023-03-17T18:53:13.753Z,11.10
2023-03-17T18:55:42.845Z,11.10
2023-03-17T18:58:11.511Z,11.10
2023-03-17T19:00:40.289Z,11.10
2023-03-17T19:03:08.763Z,11.10
2023-03-17T19:05:39.622Z,10.90
2023-03-17T19:08:08.026Z,10.80
2023-03-17T19:10:37.775Z,10.80
2023-03-17T19:13:06.630Z,10.70
2023-03-17T19:15:35.922Z,10.70
2023-03-17T19:18:04.309Z,10.70
2023-03-17T19:20:34.553Z,10.70
2023-03-17T19:23:04.591Z,10.70
2023-03-17T19:25:33.039Z,10.70
2023-03-17T19:28:03.475Z,10.70
2023-03-17T19:30:32.409Z,10.60
2023-03-17T19:33:00.891Z,10.50
2023-03-17T19:35:29.264Z,10.40
2023-03-17T19:37:57.638Z,10.30
2023-03-17T19:40:26.143Z,10.30
2023-03-17T19:42:54.584Z,10.40
2023-03-17T19:45:24.542Z,10.30
2023-03-17T19:47:52.981Z,10.10
2023-03-17T19:50:21.909Z,10.20
2023-03-17T19:52:53.115Z,10.20
2023-03-17T19:55:21.690Z,10.20
2023-03-17T19:57:50.094Z,10.20
2023-03-17T20:00:19.540Z,10.20
2023-03-17T20:02:49.428Z,10.10
2023-03-17T20:05:18.083Z,10.20
2023-03-17T20:07:46.592Z,10.30
2023-03-17T20:10:15.172Z,10.30
2023-03-17T20:12:45.826Z,10.30
2023-03-17T20:15:16.454Z,10.30
2023-03-17T20:17:45.084Z,10.30
2023-03-17T20:20:15.811Z,10.40
2023-03-17T20:22:45.034Z,10.40
2023-03-17T20:25:13.665Z,10.30
2023-03-17T20:27:41.959Z,10.30
2023-03-17T20:30:12.434Z,10.20
2023-03-17T20:32:41.079Z,10.10
2023-03-17T20:35:10.344Z,10.10
2023-03-17T20:37:40.142Z,10.00
2023-03-17T20:40:10.784Z,9.90
2023-03-17T20:42:39.303Z,10.00
2023-03-17T20:45:09.027Z,10.00
2023-03-17T20:47:37.652Z,10.10
2023-03-17T20:50:08.669Z,10.20
2023-03-17T20:52:37.328Z,10.20
2023-03-17T20:55:08.586Z,10.20
2023-03-17T20:57:38.161Z,10.20
2023-03-17T21:00:08.256Z,10.10
2023-03-17T21:02:36.761Z,10.00
2023-03-17T21:05:05.571Z,10.00
2023-03-17T21:07:34.186Z,10.00
2023-03-17T21:10:02.979Z,10.00
2023-03-17T21:12:32.940Z,10.00
2023-03-17T21:15:02.107Z,10.00
2023-03-17T21:17:30.895Z,10.00
2023-03-17T21:19:59.346Z,10.00
2023-03-17T21:22:27.804Z,10.00
2023-03-17T21:24:56.175Z,10.10
2023-03-17T21:27:25.427Z,10.00
2023-03-17T21:29:55.190Z,10.10
2023-03-17T21:32:24.420Z,10.10
2023-03-17T21:34:54.433Z,10.10
2023-03-17T21:37:22.907Z,10.00
2023-03-17T21:39:51.264Z,9.90
2023-03-17T21:42:19.857Z,9.90
2023-03-17T21:44:49.430Z,9.90
2023-03-17T21:47:20.294Z,10.00
2023-03-17T21:49:48.739Z,10.10
2023-03-17T21:52:17.082Z,10.20
2023-03-17T21:54:45.778Z,10.20
2023-03-17T21:57:14.120Z,10.20
2023-03-17T21:59:42.449Z,10.30
2023-03-17T22:02:12.645Z,10.30
2023-03-17T22:04:42.386Z,10.30
2023-03-17T22:07:11.615Z,10.30
2023-03-17T22:09:40.018Z,10.20
2023-03-17T22:12:08.541Z,10.30
2023-03-17T22:14:36.988Z,10.30
2023-03-17T22:17:06.405Z,10.20
2023-03-17T22:19:34.875Z,10.10
2023-03-17T22:22:04.903Z,10.10
2023-03-17T22:24:36.250Z,10.10
2023-03-17T22:27:04.837Z,10.10
2023-03-17T22:29:33.187Z,10.00
2023-03-17T22:32:02.537Z,10.10
2023-03-17T22:34:31.008Z,10.10
2023-03-17T22:36:59.378Z,10.10
2023-03-17T22:39:29.136Z,10.00
2023-03-17T22:41:57.435Z,9.90
2023-03-17T22:44:25.880Z,9.70
2023-03-17T22:46:54.341Z,9.50
2023-03-17T22:49:23.799Z,9.60
2023-03-17T22:51:52.319Z,9.60
2023-03-17T22:54:22.018Z,9.60
2023-03-17T22:56:51.872Z,9.60
2023-03-17T22:59:20.233Z,9.70
2023-03-17T23:01:48.718Z,9.70
2023-03-17T23:04:17.447Z,9.70
2023-03-17T23:06:46.556Z,9.50
2023-03-17T23:09:14.934Z,9.60
2023-03-17T23:11:43.533Z,9.60
2023-03-17T23:14:13.543Z,9.60
2023-03-17T23:16:41.956Z,9.60
2023-03-17T23:19:10.312Z,9.60
2023-03-17T23:21:40.126Z,9.50
2023-03-17T23:24:09.375Z,9.50
2023-03-17T23:26:38.436Z,9.30
2023-03-17T23:29:08.515Z,9.20
2023-03-17T23:31:39.804Z,9.20
2023-03-17T23:34:09.836Z,9.20
2023-03-17T23:36:40.296Z,9.20
2023-03-17T23:39:09.905Z,9.10
2023-03-17T23:41:38.262Z,9.20
2023-03-17T23:44:06.771Z,9.30
2023-03-17T23:46:35.169Z,9.30
2023-03-17T23:49:07.270Z,9.40
2023-03-17T23:51:36.167Z,9.40
2023-03-17T23:54:05.086Z,9.40
2023-03-17T23:56:33.568Z,9.50
2023-03-17T23:59:03.202Z,9.50
